Time;durP1;ratioP1;P1;durP2;ratioP2;P2;SDS_P1;SDS_P2;PMS_P1;PMS_P2;Temp;Humidity;BMP_temperature;BMP_pressure;BME280_temperature;BME280_humidity;BME280_pressure;Samples;Min_cycle;Max_cycle;Signal;HPM_P1;HPM_P2
2023/01/31 00:01:19;;;;;;;62.88;28.58;;;0.40;99.90;;;;;;5033519;28;20029;-83
2023/01/31 00:03:46;;;;;;;15.98;8.82;;;0.40;99.90;;;;;;5031767;28;20029;-84
2023/01/31 00:06:20;;;;;;;12.57;7.32;;;0.40;99.90;;;;;;5033065;28;20028;-84
2023/01/31 00:08:48;;;;;;;13.07;6.45;;;0.40;99.90;;;;;;5033431;28;20026;-88
2023/01/31 00:11:15;;;;;;;17.90;10.63;;;0.40;99.90;;;;;;5032913;28;20123;-85
2023/01/31 00:13:41;;;;;;;11.70;5.80;;;0.50;99.90;;;;;;5031849;28;20049;-84
2023/01/31 00:16:08;;;;;;;22.83;11.02;;;0.40;99.90;;;;;;5031691;28;20025;-89
2023/01/31 00:18:34;;;;;;;26.40;12.75;;;0.50;99.90;;;;;;5031482;28;20458;-83
2023/01/31 00:21:07;;;;;;;16.75;7.68;;;0.50;99.90;;;;;;5033231;28;20034;-88
2023/01/31 00:23:33;;;;;;;32.20;13.77;;;0.50;99.90;;;;;;5032693;28;20040;-87
2023/01/31 00:26:13;;;;;;;11.63;5.47;;;0.40;99.90;;;;;;5031427;28;20029;-84
2023/01/31 00:28:39;;;;;;;13.73;7.70;;;0.50;99.90;;;;;;5031441;28;20083;-84
2023/01/31 00:31:07;;;;;;;23.95;9.63;;;0.50;99.90;;;;;;5033179;28;20025;-88
2023/01/31 00:33:34;;;;;;;7.47;4.80;;;0.40;99.90;;;;;;5032759;28;20024;-87
2023/01/31 00:36:09;;;;;;;7.45;5.00;;;0.40;99.90;;;;;;5031724;28;20080;-88
2023/01/31 00:38:35;;;;;;;37.88;18.23;;;0.40;99.90;;;;;;5031574;28;20017;-89
2023/01/31 00:41:02;;;;;;;13.90;7.85;;;0.40;99.90;;;;;;5034730;28;20032;-89
2023/01/31 00:43:30;;;;;;;18.25;8.10;;;0.30;99.90;;;;;;5035164;28;20121;-89
2023/01/31 00:45:55;;;;;;;29.50;15.90;;;0.30;99.90;;;;;;5036490;28;20041;-84
2023/01/31 00:48:21;;;;;;;20.63;9.98;;;0.30;99.90;;;;;;5035242;28;20021;-89
2023/01/31 00:50:47;;;;;;;6.45;3.50;;;0.30;99.90;;;;;;5036504;28;20053;-85
2023/01/31 00:53:13;;;;;;;8.93;4.47;;;0.30;99.90;;;;;;5036819;28;20060;-89
2023/01/31 00:55:39;;;;;;;11.35;4.70;;;0.30;99.90;;;;;;5036016;28;20049;-89
2023/01/31 00:58:05;;;;;;;19.00;10.95;;;0.30;99.90;;;;;;5036394;28;20032;-89
2023/01/31 01:00:31;;;;;;;9.18;5.38;;;0.30;99.90;;;;;;5035212;28;20049;-89
2023/01/31 01:02:56;;;;;;;9.15;6.25;;;0.30;99.90;;;;;;5034879;28;20112;-84
2023/01/31 01:05:22;;;;;;;8.32;5.50;;;0.30;99.90;;;;;;5034913;28;20120;-89
2023/01/31 01:07:48;;;;;;;13.15;6.72;;;0.30;99.90;;;;;;5035071;28;20060;-89
2023/01/31 01:10:13;;;;;;;9.27;5.68;;;0.30;99.90;;;;;;5035364;28;20014;-85
2023/01/31 01:12:39;;;;;;;13.63;7.95;;;0.30;99.90;;;;;;5035033;28;20017;-90
2023/01/31 01:15:06;;;;;;;16.58;9.50;;;0.30;99.90;;;;;;5036065;28;20021;-83
2023/01/31 01:17:32;;;;;;;15.55;10.73;;;0.30;99.90;;;;;;5034922;28;20280;-90
2023/01/31 01:20:02;;;;;;;17.70;9.52;;;0.30;99.90;;;;;;5035954;28;20467;-89
2023/01/31 01:22:28;;;;;;;17.55;9.27;;;0.40;99.90;;;;;;5035109;28;20022;-84
2023/01/31 01:24:54;;;;;;;30.90;17.90;;;0.30;99.90;;;;;;5034695;28;20403;-90
2023/01/31 01:27:20;;;;;;;9.25;5.50;;;0.30;99.90;;;;;;5035908;28;20040;-90
2023/01/31 01:29:46;;;;;;;6.82;4.93;;;0.30;99.90;;;;;;5035726;28;20501;-83
2023/01/31 01:32:12;;;;;;;17.70;9.18;;;0.40;99.90;;;;;;5036090;28;20056;-83
2023/01/31 01:34:37;;;;;;;13.75;8.35;;;0.30;99.90;;;;;;5035839;28;20060;-89
2023/01/31 01:37:10;;;;;;;10.80;5.95;;;0.30;99.90;;;;;;5035964;28;20091;-88
2023/01/31 01:39:39;;;;;;;10.20;4.50;;;0.30;99.90;;;;;;5034417;28;20499;-84
2023/01/31 01:42:05;;;;;;;11.30;6.75;;;0.30;99.90;;;;;;5035609;28;20072;-89
2023/01/31 01:44:53;;;;;;;17.15;7.78;;;0.40;99.90;;;;;;5035595;28;20037;-89
2023/01/31 01:47:34;;;;;;;14.73;11.10;;;0.40;99.90;;;;;;5034295;28;20471;-88
2023/01/31 01:50:08;;;;;;;8.20;4.95;;;0.40;99.90;;;;;;5035564;28;20390;-89
2023/01/31 01:52:55;;;;;;;10.77;6.28;;;0.40;99.90;;;;;;5033867;28;20029;-84
2023/01/31 01:55:28;;;;;;;13.50;6.70;;;0.40;99.90;;;;;;5034969;28;20061;-88
2023/01/31 01:57:55;;;;;;;;;;;0.40;99.90;;;;;;5035825;28;20025;-89
2023/01/31 02:00:24;;;;;;;10.57;4.50;;;0.40;99.90;;;;;;5035801;28;20270;-87
2023/01/31 02:02:54;;;;;;;10.80;5.82;;;0.40;99.90;;;;;;5034767;28;20026;-84
2023/01/31 02:05:28;;;;;;;15.77;7.32;;;0.40;99.90;;;;;;5034125;28;20037;-88
2023/01/31 02:07:55;;;;;;;13.90;6.55;;;0.50;99.90;;;;;;5034624;28;20018;-84
2023/01/31 02:10:40;;;;;;;14.30;4.07;;;0.40;99.90;;;;;;5034216;28;20083;-84
2023/01/31 02:13:06;;;;;;;13.32;6.75;;;0.50;99.90;;;;;;5033263;28;20048;-84
2023/01/31 02:15:34;;;;;;;16.52;6.63;;;0.50;99.90;;;;;;5033399;28;20112;-84
2023/01/31 02:18:00;;;;;;;16.48;7.80;;;0.50;99.90;;;;;;5033502;28;20022;-84
2023/01/31 02:20:56;;;;;;;17.23;8.70;;;0.50;99.90;;;;;;5034958;28;20021;-88
2023/01/31 02:23:39;;;;;;;20.60;8.30;;;0.50;99.90;;;;;;5034836;28;20470;-84
2023/01/31 02:26:32;;;;;;;10.70;4.80;;;0.50;99.90;;;;;;5033100;28;20481;-89
2023/01/31 02:29:19;;;;;;;13.00;4.70;;;0.60;99.90;;;;;;5033528;28;20390;-88
2023/01/31 02:32:19;;;;;;;16.45;5.20;;;0.50;99.90;;;;;;5035144;28;20462;-88
2023/01/31 02:35:19;;;;;;;12.40;6.13;;;0.50;99.90;;;;;;5033469;28;20478;-88
2023/01/31 02:37:53;;;;;;;13.55;5.93;;;0.60;99.90;;;;;;5027662;28;20095;-88
2023/01/31 02:40:45;;;;;;;8.73;5.45;;;0.60;99.90;;;;;;5033093;28;20387;-88
2023/01/31 02:46:49;;;;;;;20.70;7.60;;;0.60;99.90;;;;;;5029008;28;20095;-85
2023/01/31 02:49:34;;;;;;;18.15;8.43;;;0.60;99.90;;;;;;5030798;28;20475;-85
2023/01/31 02:52:25;;;;;;;14.63;3.90;;;0.60;99.90;;;;;;5034179;28;20032;-84
2023/01/31 02:57:57;;;;;;;15.38;6.20;;;0.60;99.90;;;;;;5034286;28;20069;-84
2023/01/31 03:00:25;;;;;;;12.70;5.95;;;0.60;99.90;;;;;;5034653;28;20431;-85
2023/01/31 03:02:50;;;;;;;12.48;4.30;;;0.60;99.90;;;;;;5032920;28;20112;-84
2023/01/31 03:05:18;;;;;;;11.05;4.28;;;0.60;99.90;;;;;;5031929;28;20124;-84
2023/01/31 03:07:51;;;;;;;14.38;4.10;;;0.70;99.90;;;;;;5034164;28;20331;-88
2023/01/31 03:10:20;;;;;;;13.52;5.47;;;0.70;99.90;;;;;;5032647;28;20387;-84
2023/01/31 03:13:11;;;;;;;16.13;8.00;;;0.80;99.90;;;;;;5032746;28;20037;-85
2023/01/31 03:18:43;;;;;;;6.93;2.90;;;0.80;99.90;;;;;;5033925;28;20464;-88
2023/01/31 03:21:11;;;;;;;11.40;3.58;;;0.80;99.90;;;;;;5032502;28;20030;-88
2023/01/31 03:23:40;;;;;;;17.77;5.45;;;0.80;99.90;;;;;;5033747;28;20391;-88
2023/01/31 03:26:06;;;;;;;16.55;5.45;;;0.80;99.90;;;;;;5031749;28;20400;-84
2023/01/31 03:28:35;;;;;;;19.73;8.35;;;0.70;99.90;;;;;;5033618;28;20037;-83
2023/01/31 03:31:04;;;;;;;18.20;4.22;;;0.70;99.90;;;;;;5031806;28;20025;-88
2023/01/31 03:33:37;;;;;;;12.68;5.32;;;0.70;99.90;;;;;;5032150;28;20037;-89
2023/01/31 03:36:19;;;;;;;14.25;5.05;;;0.70;99.90;;;;;;5033192;28;20025;-88
2023/01/31 03:38:55;;;;;;;17.90;9.82;;;0.70;99.90;;;;;;5033522;28;20026;-84
2023/01/31 03:41:37;;;;;;;9.80;4.00;;;0.70;99.90;;;;;;5033835;28;20132;-84
2023/01/31 03:44:09;;;;;;;13.68;5.22;;;0.60;99.90;;;;;;5031755;28;20479;-89
2023/01/31 03:46:42;;;;;;;16.93;4.57;;;0.60;99.90;;;;;;5020549;28;20022;-89
2023/01/31 03:49:10;;;;;;;12.55;5.57;;;0.60;99.90;;;;;;5011587;28;20022;-87
2023/01/31 03:51:41;;;;;;;12.73;3.63;;;0.60;99.90;;;;;;5012424;28;20040;-88
2023/01/31 03:54:13;;;;;;;16.13;5.43;;;0.60;99.90;;;;;;5011891;28;20408;-83
2023/01/31 03:56:42;;;;;;;12.20;4.20;;;0.60;99.90;;;;;;5011410;28;20129;-83
2023/01/31 03:59:13;;;;;;;9.70;4.07;;;0.60;99.90;;;;;;5011411;28;20348;-88
2023/01/31 04:01:47;;;;;;;11.32;4.63;;;0.60;99.90;;;;;;5011506;28;20065;-88
2023/01/31 04:04:21;;;;;;;8.85;3.22;;;0.50;99.90;;;;;;5010141;28;20030;-88
2023/01/31 04:06:47;;;;;;;14.18;3.50;;;0.50;99.90;;;;;;5010937;28;20129;-88
2023/01/31 04:09:13;;;;;;;11.25;3.13;;;0.50;99.90;;;;;;5010561;28;20110;-83
2023/01/31 04:11:40;;;;;;;8.32;3.60;;;0.50;99.90;;;;;;5010411;28;20026;-88
2023/01/31 04:14:07;;;;;;;8.43;3.22;;;0.40;99.90;;;;;;5010117;28;20033;-83
2023/01/31 04:16:33;;;;;;;10.55;3.15;;;0.40;99.90;;;;;;5010901;28;20046;-88
2023/01/31 04:18:59;;;;;;;9.57;4.13;;;0.40;99.90;;;;;;5012640;28;20084;-85
2023/01/31 04:21:25;;;;;;;9.30;3.25;;;0.30;99.90;;;;;;5013296;28;20073;-83
2023/01/31 04:23:51;;;;;;;9.70;3.78;;;0.30;99.90;;;;;;5012133;28;20018;-83
2023/01/31 04:26:18;;;;;;;11.02;3.92;;;0.30;99.90;;;;;;5013077;28;20570;-84
2023/01/31 04:28:44;;;;;;;8.25;2.90;;;0.30;99.90;;;;;;5011756;28;20022;-83
2023/01/31 04:31:10;;;;;;;12.93;3.97;;;0.30;99.90;;;;;;5013275;28;20561;-83
2023/01/31 04:33:35;;;;;;;16.25;5.57;;;0.30;99.90;;;;;;5011722;28;20372;-84
2023/01/31 04:36:01;;;;;;;14.27;3.53;;;0.30;99.90;;;;;;5012940;28;20096;-83
2023/01/31 04:38:27;;;;;;;10.43;3.60;;;0.30;99.90;;;;;;5011704;28;20026;-83
2023/01/31 04:40:53;;;;;;;7.72;3.75;;;0.30;99.90;;;;;;5013158;28;20101;-83
2023/01/31 04:43:20;;;;;;;9.00;3.70;;;0.40;99.90;;;;;;5013355;28;20456;-88
2023/01/31 04:45:46;;;;;;;18.55;4.75;;;0.30;99.90;;;;;;5012576;28;20122;-84
2023/01/31 04:48:12;;;;;;;15.65;5.25;;;0.30;99.90;;;;;;5013109;28;20042;-88
2023/01/31 04:50:38;;;;;;;10.43;4.25;;;0.30;99.90;;;;;;5011672;28;20083;-88
2023/01/31 04:53:03;;;;;;;7.38;3.40;;;0.30;99.90;;;;;;5012846;28;20062;-87
2023/01/31 04:55:29;;;;;;;15.23;4.85;;;0.40;99.90;;;;;;5012801;28;20042;-83
2023/01/31 04:57:55;;;;;;;9.40;3.88;;;0.40;99.90;;;;;;5011487;28;20087;-88
2023/01/31 05:00:21;;;;;;;6.95;3.22;;;0.30;99.90;;;;;;5013308;28;20038;-88
2023/01/31 05:02:47;;;;;;;7.18;3.67;;;0.30;99.90;;;;;;5011202;28;20022;-84
2023/01/31 05:05:13;;;;;;;11.70;3.70;;;0.30;99.90;;;;;;5012605;28;20048;-89
2023/01/31 05:07:39;;;;;;;5.68;2.95;;;0.30;99.90;;;;;;5012857;28;20448;-84
2023/01/31 05:10:05;;;;;;;14.35;4.32;;;0.30;99.90;;;;;;5011317;28;20050;-83
2023/01/31 05:12:31;;;;;;;11.43;4.72;;;0.30;99.90;;;;;;5013257;28;20112;-88
2023/01/31 05:14:57;;;;;;;13.77;4.18;;;0.20;99.90;;;;;;5012715;28;20061;-87
2023/01/31 05:17:28;;;;;;;7.35;3.58;;;0.20;99.90;;;;;;5012530;28;20038;-88
2023/01/31 05:19:55;;;;;;;10.70;4.53;;;0.20;99.90;;;;;;5012744;28;20033;-88
2023/01/31 05:22:22;;;;;;;7.93;3.92;;;0.30;99.90;;;;;;5011640;28;20021;-84
2023/01/31 05:24:48;;;;;;;6.60;3.63;;;0.20;99.90;;;;;;5012896;28;20041;-88
2023/01/31 05:27:15;;;;;;;8.05;3.40;;;0.20;99.90;;;;;;5012991;28;20018;-88
2023/01/31 05:29:41;;;;;;;20.25;4.78;;;0.30;99.90;;;;;;5016700;28;20102;-83
2023/01/31 05:32:08;;;;;;;8.65;2.83;;;0.20;99.90;;;;;;5014816;28;20444;-83
2023/01/31 05:34:34;;;;;;;9.48;3.35;;;0.20;99.90;;;;;;5015137;28;20057;-88
2023/01/31 05:37:00;;;;;;;9.35;3.10;;;0.20;99.90;;;;;;5015698;28;20049;-88
2023/01/31 05:39:26;;;;;;;6.78;2.78;;;0.20;99.90;;;;;;5014872;28;20383;-83
2023/01/31 05:41:53;;;;;;;9.20;3.22;;;0.20;99.90;;;;;;5014637;28;20499;-83
2023/01/31 05:44:19;;;;;;;4.93;2.67;;;0.30;99.90;;;;;;5014802;28;20014;-83
2023/01/31 05:46:45;;;;;;;8.50;3.20;;;0.20;99.90;;;;;;5015938;28;20026;-88
2023/01/31 05:49:11;;;;;;;7.00;3.20;;;0.20;99.90;;;;;;5014865;28;20061;-83
2023/01/31 05:51:38;;;;;;;15.05;3.08;;;0.20;99.90;;;;;;5014595;28;20148;-87
2023/01/31 05:54:04;;;;;;;20.55;5.60;;;0.20;99.90;;;;;;5015790;28;20022;-88
2023/01/31 05:56:29;;;;;;;15.25;3.47;;;0.20;99.90;;;;;;5014383;28;20096;-88
2023/01/31 05:58:56;;;;;;;8.13;2.83;;;0.20;99.90;;;;;;5015676;28;20515;-88
2023/01/31 06:01:24;;;;;;;6.88;2.90;;;0.20;99.90;;;;;;5015572;28;20029;-89
2023/01/31 06:03:50;;;;;;;6.03;3.75;;;0.20;99.90;;;;;;5015360;28;20075;-88
2023/01/31 06:06:17;;;;;;;12.07;4.45;;;0.20;99.90;;;;;;5014513;28;20041;-88
2023/01/31 06:08:43;;;;;;;7.60;3.60;;;0.20;99.90;;;;;;5015478;28;20104;-87
2023/01/31 06:11:10;;;;;;;9.15;3.15;;;0.20;99.90;;;;;;5015619;28;20104;-83
2023/01/31 06:13:37;;;;;;;8.38;2.85;;;0.20;99.90;;;;;;5015549;28;20061;-87
2023/01/31 06:16:03;;;;;;;10.73;3.10;;;0.20;99.90;;;;;;5015369;28;20053;-84
2023/01/31 06:18:29;;;;;;;8.68;3.00;;;0.20;99.90;;;;;;5015303;28;20026;-84
2023/01/31 06:20:55;;;;;;;11.52;2.88;;;0.20;99.90;;;;;;5015752;28;20022;-88
2023/01/31 06:23:21;;;;;;;10.38;3.00;;;0.20;99.90;;;;;;5015252;28;20064;-88
2023/01/31 06:25:52;;;;;;;11.32;3.47;;;0.20;99.90;;;;;;5014362;28;20061;-89
2023/01/31 06:28:18;;;;;;;11.35;2.88;;;0.20;99.90;;;;;;5013724;28;20029;-88
2023/01/31 06:30:44;;;;;;;11.90;3.53;;;0.20;99.90;;;;;;5013868;28;20033;-89
2023/01/31 06:33:09;;;;;;;14.02;4.60;;;0.20;99.90;;;;;;5013614;28;20018;-84
2023/01/31 06:35:35;;;;;;;17.55;6.47;;;0.20;99.90;;;;;;5014609;28;20026;-83
2023/01/31 06:38:02;;;;;;;8.68;4.22;;;0.20;99.90;;;;;;5013851;28;20052;-83
2023/01/31 06:40:27;;;;;;;26.33;7.63;;;0.20;99.90;;;;;;5013867;28;20514;-89
2023/01/31 06:42:53;;;;;;;93.05;32.25;;;0.20;99.90;;;;;;5015251;28;20026;-83
2023/01/31 06:45:19;;;;;;;174.23;67.47;;;0.20;99.90;;;;;;5013500;28;20030;-84
2023/01/31 06:47:45;;;;;;;21.08;8.35;;;0.20;99.90;;;;;;5013421;28;20018;-88
2023/01/31 06:50:12;;;;;;;17.85;7.57;;;0.20;99.90;;;;;;5013969;28;20076;-88
2023/01/31 06:52:38;;;;;;;21.33;6.60;;;0.20;99.90;;;;;;5012943;28;20024;-87
2023/01/31 06:55:05;;;;;;;112.32;41.03;;;0.20;99.90;;;;;;5012260;28;20026;-82
2023/01/31 06:57:31;;;;;;;23.23;9.18;;;0.20;99.90;;;;;;5012241;28;20049;-82
2023/01/31 06:59:56;;;;;;;63.50;22.80;;;0.30;99.90;;;;;;5012723;28;20080;-83
2023/01/31 07:02:23;;;;;;;52.63;17.42;;;0.20;99.90;;;;;;5012933;28;20088;-82
2023/01/31 07:04:48;;;;;;;45.50;15.43;;;0.30;99.90;;;;;;5013334;28;20038;-83
2023/01/31 07:07:14;;;;;;;51.95;18.70;;;0.30;99.90;;;;;;5013071;28;20020;-83
2023/01/31 07:09:40;;;;;;;93.13;30.92;;;0.30;99.90;;;;;;5014438;28;20068;-89
2023/01/31 07:12:06;;;;;;;72.50;23.50;;;0.30;99.90;;;;;;5012804;28;20013;-84
2023/01/31 07:14:32;;;;;;;32.85;11.63;;;0.30;99.90;;;;;;5013505;28;20084;-87
2023/01/31 07:16:58;;;;;;;28.00;9.93;;;0.40;99.90;;;;;;5013567;28;20495;-84
2023/01/31 07:19:23;;;;;;;79.55;22.42;;;0.40;99.90;;;;;;5011141;28;20018;-84
2023/01/31 07:21:50;;;;;;;124.40;37.25;;;0.40;99.90;;;;;;5012232;28;20559;-84
2023/01/31 07:24:16;;;;;;;30.05;10.40;;;0.40;99.90;;;;;;5010197;28;20109;-84
2023/01/31 07:26:42;;;;;;;52.25;17.30;;;0.40;99.90;;;;;;5008878;28;20453;-87
2023/01/31 07:29:08;;;;;;;31.45;10.32;;;0.40;99.90;;;;;;5008912;28;20050;-88
2023/01/31 07:31:34;;;;;;;69.78;20.13;;;0.40;99.90;;;;;;5009864;28;20029;-83
2023/01/31 07:33:59;;;;;;;132.77;39.20;;;0.50;99.90;;;;;;5010229;28;20479;-86
2023/01/31 07:36:25;;;;;;;120.85;39.97;;;0.50;99.90;;;;;;5012450;28;20058;-87
2023/01/31 07:38:56;;;;;;;103.07;33.55;;;0.50;99.90;;;;;;5012258;28;20533;-83
2023/01/31 07:41:23;;;;;;;57.45;16.83;;;0.50;99.90;;;;;;5013974;28;20080;-84
2023/01/31 07:43:49;;;;;;;99.97;32.13;;;0.50;99.90;;;;;;5013779;28;20022;-87
2023/01/31 07:46:15;;;;;;;50.80;16.42;;;0.50;99.90;;;;;;5012881;28;20507;-87
2023/01/31 07:48:41;;;;;;;24.58;8.80;;;0.60;99.90;;;;;;5013752;28;20025;-87
2023/01/31 07:51:07;;;;;;;117.97;41.88;;;0.60;99.90;;;;;;5012644;28;20097;-84
2023/01/31 07:53:35;;;;;;;94.50;34.47;;;0.50;99.90;;;;;;5011935;28;20084;-84
2023/01/31 07:56:14;;;;;;;32.97;11.88;;;0.60;99.90;;;;;;5013273;28;20116;-87
2023/01/31 07:58:41;;;;;;;107.72;43.35;;;0.60;99.90;;;;;;5011758;28;20488;-87
2023/01/31 08:03:57;;;;;;;115.90;45.17;;;0.70;99.90;;;;;;5013135;28;20033;-84
2023/01/31 08:06:23;;;;;;;24.85;8.65;;;0.70;99.90;;;;;;5013495;28;20038;-87
2023/01/31 08:08:49;;;;;;;48.88;21.40;;;0.70;99.90;;;;;;5012152;28;20176;-87
2023/01/31 08:11:15;;;;;;;16.52;6.07;;;0.70;99.90;;;;;;5013305;28;20080;-87
2023/01/31 08:13:40;;;;;;;19.98;7.45;;;0.70;99.90;;;;;;5011935;28;20120;-83
2023/01/31 08:16:08;;;;;;;20.98;10.15;;;0.70;99.90;;;;;;5011730;28;20029;-83
2023/01/31 08:18:34;;;;;;;37.58;10.77;;;0.70;99.90;;;;;;5013371;28;20037;-84
2023/01/31 08:21:00;;;;;;;40.25;17.50;;;0.70;99.90;;;;;;5012009;28;20549;-83
2023/01/31 08:23:26;;;;;;;14.52;5.45;;;0.70;99.90;;;;;;5012298;28;20026;-83
2023/01/31 08:26:00;;;;;;;10.10;4.22;;;0.70;99.90;;;;;;5013227;28;20044;-84
2023/01/31 08:28:25;;;;;;;36.50;18.52;;;0.70;99.90;;;;;;5011623;28;20028;-85
2023/01/31 08:30:51;;;;;;;10.75;4.43;;;0.70;99.90;;;;;;5013214;28;20018;-86
2023/01/31 08:33:17;;;;;;;30.17;14.85;;;0.70;99.90;;;;;;5013279;28;20454;-84
2023/01/31 08:35:43;;;;;;;19.38;5.97;;;0.70;99.90;;;;;;5011620;28;20041;-87
2023/01/31 08:38:08;;;;;;;15.32;6.32;;;0.70;99.90;;;;;;5012992;28;20049;-86
2023/01/31 08:40:34;;;;;;;17.02;5.80;;;0.70;99.90;;;;;;5012771;28;20432;-84
2023/01/31 08:43:00;;;;;;;24.63;16.92;;;0.80;99.90;;;;;;5012924;28;20391;-87
2023/01/31 08:45:27;;;;;;;10.23;4.53;;;0.80;99.90;;;;;;5012964;28;20034;-84
2023/01/31 08:47:58;;;;;;;7.05;4.20;;;0.80;99.90;;;;;;5013272;28;20054;-84
2023/01/31 08:50:26;;;;;;;22.45;8.82;;;0.80;99.90;;;;;;5012782;28;20022;-84
2023/01/31 08:52:56;;;;;;;15.50;5.78;;;0.80;99.90;;;;;;5032603;28;20540;-85
2023/01/31 08:55:23;;;;;;;9.73;3.58;;;0.80;99.90;;;;;;5031340;28;20046;-84
2023/01/31 08:57:50;;;;;;;10.77;4.35;;;0.80;99.90;;;;;;5031273;28;20040;-84
2023/01/31 09:00:17;;;;;;;18.65;5.93;;;0.80;99.90;;;;;;5032770;28;20072;-84
2023/01/31 09:02:45;;;;;;;15.13;6.90;;;0.80;99.90;;;;;;5034907;28;20033;-84
2023/01/31 09:05:11;;;;;;;11.80;4.43;;;0.80;99.90;;;;;;5035156;28;20044;-84
2023/01/31 09:07:38;;;;;;;11.13;4.30;;;0.80;99.90;;;;;;5035136;28;20052;-83
2023/01/31 09:10:04;;;;;;;16.48;4.20;;;0.80;99.90;;;;;;5036179;28;20115;-86
2023/01/31 09:12:30;;;;;;;9.90;3.45;;;0.80;99.90;;;;;;5035518;28;20025;-86
2023/01/31 09:14:55;;;;;;;11.02;3.53;;;0.90;99.90;;;;;;5035142;28;20063;-85
2023/01/31 09:17:21;;;;;;;11.02;3.92;;;0.80;99.90;;;;;;5036373;28;20022;-85
2023/01/31 09:19:48;;;;;;;15.30;6.25;;;0.80;99.90;;;;;;5034792;28;20057;-84
2023/01/31 09:22:14;;;;;;;12.77;4.57;;;0.80;99.90;;;;;;5036301;28;20489;-84
2023/01/31 09:24:40;;;;;;;17.38;7.43;;;0.80;99.90;;;;;;5036166;28;20033;-85
2023/01/31 09:27:06;;;;;;;27.77;8.98;;;0.70;99.90;;;;;;5035929;28;20128;-84
2023/01/31 09:29:32;;;;;;;35.33;14.77;;;0.70;99.90;;;;;;5034946;28;20105;-86
2023/01/31 09:31:57;;;;;;;28.67;13.85;;;0.70;99.90;;;;;;5035091;28;20022;-86
2023/01/31 09:34:23;;;;;;;37.70;16.13;;;0.70;99.90;;;;;;5034842;28;20079;-84
2023/01/31 09:36:49;;;;;;;33.83;15.93;;;0.70;99.90;;;;;;5034675;28;20026;-84
2023/01/31 09:39:15;;;;;;;26.27;12.15;;;0.70;99.90;;;;;;5034714;28;20022;-86
2023/01/31 09:42:02;;;;;;;30.27;14.98;;;0.70;99.90;;;;;;5036092;28;20538;-84
2023/01/31 09:44:31;;;;;;;25.20;10.27;;;0.80;99.90;;;;;;5034016;28;20041;-84
2023/01/31 09:47:17;;;;;;;22.42;11.23;;;0.90;99.90;;;;;;5034297;28;20095;-86
2023/01/31 09:49:57;;;;;;;22.27;9.63;;;0.90;99.90;;;;;;5035889;28;20364;-84
2023/01/31 09:52:23;;;;;;;13.95;7.90;;;1.10;99.90;;;;;;5035550;28;20025;-84
2023/01/31 09:54:49;;;;;;;18.48;6.72;;;1.10;99.90;;;;;;5034359;28;20027;-84
2023/01/31 09:57:35;;;;;;;21.83;11.70;;;1.20;99.90;;;;;;5035339;28;20469;-86
2023/01/31 10:00:12;;;;;;;19.13;6.90;;;1.30;99.90;;;;;;5035557;28;20100;-85
2023/01/31 10:03:08;;;;;;;21.00;9.20;;;1.30;99.90;;;;;;5035615;28;20109;-83
2023/01/31 10:06:19;;;;;;;17.23;9.45;;;1.30;99.90;;;;;;5035312;28;20037;-84
2023/01/31 10:08:48;;;;;;;13.50;5.68;;;1.40;99.90;;;;;;4995765;28;20026;-84
2023/01/31 10:11:35;;;;;;;17.70;6.30;;;1.50;99.90;;;;;;4995880;28;20019;-86
2023/01/31 10:14:24;;;;;;;14.90;7.45;;;1.50;99.90;;;;;;4995613;28;20037;-86
2023/01/31 10:17:14;;;;;;;12.65;6.95;;;1.50;99.90;;;;;;4994562;28;20019;-86
2023/01/31 10:20:02;;;;;;;9.15;5.13;;;1.60;99.90;;;;;;4996099;28;20494;-84
2023/01/31 10:23:06;;;;;;;14.18;6.78;;;1.50;99.90;;;;;;4995776;28;20077;-84
2023/01/31 10:25:53;;;;;;;8.80;3.63;;;1.50;99.90;;;;;;4992758;28;20053;-82
2023/01/31 10:28:24;;;;;;;17.73;4.13;;;1.50;99.90;;;;;;4994475;28;20026;-82
2023/01/31 10:31:19;;;;;;;13.93;4.28;;;1.60;99.90;;;;;;4994410;28;20591;-84
2023/01/31 10:33:59;;;;;;;11.15;4.00;;;1.50;99.90;;;;;;4995607;28;20018;-84
2023/01/31 10:36:41;;;;;;;12.00;5.10;;;1.50;99.90;;;;;;4994484;28;20085;-82
2023/01/31 10:39:16;;;;;;;11.50;5.85;;;1.50;99.90;;;;;;4994419;28;20113;-84
2023/01/31 10:42:01;;;;;;;10.00;3.33;;;1.50;99.90;;;;;;4994012;28;20029;-82
2023/01/31 10:44:47;;;;;;;10.88;6.78;;;1.60;99.90;;;;;;4994012;28;20130;-84
2023/01/31 10:47:15;;;;;;;6.28;4.72;;;1.50;99.90;;;;;;4993957;28;20029;-82
2023/01/31 10:49:47;;;;;;;11.70;4.60;;;1.50;99.90;;;;;;4995339;28;20037;-84
2023/01/31 10:52:31;;;;;;;14.18;3.85;;;1.50;99.90;;;;;;4993760;28;20018;-84
2023/01/31 10:55:14;;;;;;;13.63;4.40;;;1.50;99.40;;;;;;4994003;28;20026;-82
2023/01/31 10:57:40;;;;;;;14.65;6.40;;;1.50;99.00;;;;;;4994036;28;20022;-84
2023/01/31 11:00:18;;;;;;;10.20;4.25;;;1.50;99.20;;;;;;4993862;28;20031;-82
2023/01/31 11:02:43;;;;;;;10.15;5.18;;;1.40;97.90;;;;;;4993882;28;20460;-84
2023/01/31 11:05:17;;;;;;;14.40;6.80;;;1.40;98.70;;;;;;4993815;28;20052;-84
2023/01/31 11:07:43;;;;;;;20.80;8.60;;;1.30;99.90;;;;;;4993574;28;20116;-84
2023/01/31 11:10:28;;;;;;;9.60;5.00;;;1.20;99.90;;;;;;4994936;28;20086;-84
2023/01/31 11:13:03;;;;;;;16.20;5.25;;;1.10;99.90;;;;;;4993384;28;20034;-82
2023/01/31 11:15:36;;;;;;;10.55;5.72;;;1.10;99.90;;;;;;4993395;28;20497;-82
2023/01/31 11:18:02;;;;;;;11.43;4.45;;;1.10;99.90;;;;;;4994621;28;20022;-84
2023/01/31 11:20:35;;;;;;;12.15;4.72;;;1.10;99.90;;;;;;4993839;28;20030;-84
2023/01/31 11:23:02;;;;;;;;;;;1.00;99.90;;;;;;4994095;28;20499;-84
2023/01/31 11:25:30;;;;;;;8.48;3.85;;;1.10;99.90;;;;;;4993480;28;19921;-87
2023/01/31 11:28:02;;;;;;;9.80;3.70;;;1.00;99.90;;;;;;4993172;28;20026;-84
2023/01/31 11:30:31;;;;;;;16.03;4.67;;;1.10;99.90;;;;;;4993901;28;20026;-85
2023/01/31 11:32:58;;;;;;;26.77;10.98;;;1.10;99.90;;;;;;4994422;28;20029;-87
2023/01/31 11:35:31;;;;;;;26.60;11.55;;;1.10;99.90;;;;;;4994301;28;20026;-87
2023/01/31 11:37:59;;;;;;;34.40;14.73;;;1.10;99.90;;;;;;4994207;28;20034;-85
2023/01/31 11:40:29;;;;;;;22.48;9.98;;;1.20;99.90;;;;;;4994303;28;20433;-82
2023/01/31 11:43:04;;;;;;;12.00;6.10;;;1.20;99.90;;;;;;4993064;28;20041;-82
2023/01/31 11:45:31;;;;;;;35.92;14.18;;;1.20;99.90;;;;;;4992984;28;20117;-83
2023/01/31 11:48:04;;;;;;;17.92;6.25;;;1.20;99.90;;;;;;4992848;28;20026;-82
2023/01/31 11:50:39;;;;;;;11.93;5.28;;;1.20;99.90;;;;;;4994013;28;20101;-85
2023/01/31 11:53:32;;;;;;;11.48;4.22;;;1.30;99.90;;;;;;4994109;28;20499;-82
2023/01/31 11:56:09;;;;;;;29.50;11.40;;;1.20;99.90;;;;;;4993649;28;20046;-82
2023/01/31 11:58:38;;;;;;;12.23;5.57;;;1.20;99.90;;;;;;4992443;28;20531;-83
2023/01/31 12:01:16;;;;;;;15.43;5.65;;;1.10;99.90;;;;;;4993844;28;20030;-83
2023/01/31 12:03:55;;;;;;;14.85;4.80;;;1.10;99.90;;;;;;4994072;28;20518;-82
2023/01/31 12:06:27;;;;;;;11.43;5.53;;;1.10;99.90;;;;;;4993639;28;20389;-84
2023/01/31 12:08:55;;;;;;;6.32;4.55;;;1.10;99.90;;;;;;4993807;28;20157;-83
2023/01/31 12:11:30;;;;;;;13.13;4.63;;;1.00;99.90;;;;;;4993802;28;20088;-84
2023/01/31 12:14:05;;;;;;;50.15;13.30;;;1.00;99.90;;;;;;4992791;28;20042;-84
2023/01/31 12:16:32;;;;;;;36.33;9.38;;;1.00;99.90;;;;;;4992054;28;20041;-87
2023/01/31 12:19:10;;;;;;;25.65;8.40;;;1.20;99.90;;;;;;4992678;28;20042;-84
2023/01/31 12:21:56;;;;;;;11.45;4.55;;;1.20;99.90;;;;;;4994015;28;20030;-84
2023/01/31 12:24:46;;;;;;;26.02;9.90;;;1.20;99.90;;;;;;5001406;28;20153;-85
2023/01/31 12:27:39;;;;;;;14.35;5.47;;;1.40;99.90;;;;;;4993688;28;20102;-82
2023/01/31 12:30:23;;;;;;;13.95;5.40;;;1.50;99.20;;;;;;5007802;28;20492;-85
2023/01/31 12:33:10;;;;;;;15.20;5.40;;;1.50;93.60;;;;;;4993367;28;20050;-84
2023/01/31 12:35:54;;;;;;;16.10;6.00;;;1.60;91.80;;;;;;4992222;28;20030;-83
2023/01/31 12:39:04;;;;;;;8.85;3.55;;;1.60;92.50;;;;;;4993235;28;20022;-83
2023/01/31 12:41:40;;;;;;;95.88;29.13;;;1.60;92.70;;;;;;4992043;28;20030;-83
2023/01/31 12:44:15;;;;;;;48.45;15.93;;;1.60;92.20;;;;;;4993201;28;20030;-84
2023/01/31 12:47:17;;;;;;;9.93;3.85;;;1.60;92.70;;;;;;4993841;28;20042;-84
2023/01/31 12:50:08;;;;;;;42.17;12.52;;;1.60;92.50;;;;;;4993640;28;20045;-82
2023/01/31 12:52:58;;;;;;;10.45;3.38;;;1.60;93.70;;;;;;4992040;28;20077;-82
2023/01/31 12:55:33;;;;;;;22.15;13.63;;;1.50;92.40;;;;;;4992655;28;20055;-83
2023/01/31 12:58:11;;;;;;;72.70;28.27;;;1.50;93.10;;;;;;4993370;28;20023;-83
2023/01/31 13:00:47;;;;;;;72.05;30.33;;;1.50;94.00;;;;;;4993469;28;20503;-85
2023/01/31 13:03:16;;;;;;;47.72;15.18;;;1.50;94.60;;;;;;4993175;28;20038;-85
2023/01/31 13:05:51;;;;;;;27.52;11.00;;;1.50;95.10;;;;;;4992330;28;20046;-83
2023/01/31 13:08:20;;;;;;;38.35;14.18;;;1.60;95.70;;;;;;4993723;28;20023;-85
2023/01/31 13:11:15;;;;;;;72.70;31.10;;;1.50;96.20;;;;;;4992925;28;20022;-84
2023/01/31 13:13:50;;;;;;;54.55;17.75;;;1.60;96.60;;;;;;4992029;28;20038;-85
2023/01/31 13:16:42;;;;;;;24.23;9.15;;;1.60;96.90;;;;;;4991600;28;20074;-83
2023/01/31 13:19:35;;;;;;;20.15;7.13;;;1.60;96.50;;;;;;4993373;28;20053;-82
2023/01/31 13:22:21;;;;;;;32.80;14.20;;;1.60;94.40;;;;;;5007903;28;20019;-84